createdAt,value
2017-09-20T00:01:46.367Z,31.37
2017-09-20T00:04:14.098Z,30.40
2017-09-20T00:06:42.584Z,30.27
2017-09-20T00:09:11.069Z,29.17
2017-09-20T00:11:39.608Z,30.48
2017-09-20T00:14:07.474Z,29.98
2017-09-20T00:16:35.343Z,30.08
2017-09-20T00:19:03.078Z,29.30
2017-09-20T00:21:30.807Z,30.12
2017-09-20T00:23:59.456Z,27.85
2017-09-20T00:26:27.323Z,30.95
2017-09-20T00:28:55.191Z,30.00
2017-09-20T00:31:22.927Z,30.08
2017-09-20T00:33:50.666Z,30.67
2017-09-20T00:36:19.306Z,28.90
2017-09-20T00:38:47.171Z,30.55
2017-09-20T00:41:15.038Z,33.28
2017-09-20T00:43:42.914Z,31.52
2017-09-20T00:46:10.773Z,33.42
2017-09-20T00:48:38.640Z,30.17
2017-09-20T00:51:06.508Z,32.58
2017-09-20T00:53:34.267Z,32.53
2017-09-20T00:56:02.139Z,32.97
2017-09-20T00:58:29.930Z,33.17
2017-09-20T01:00:57.719Z,32.05
2017-09-20T01:03:25.538Z,31.58
2017-09-20T01:05:53.404Z,34.40
2017-09-20T01:08:21.277Z,37.70
2017-09-20T01:10:49.142Z,36.28
2017-09-20T01:13:17.008Z,34.63
2017-09-20T01:15:44.880Z,33.25
2017-09-20T01:18:12.746Z,34.50
2017-09-20T01:20:52.400Z,31.98
2017-09-20T01:23:22.919Z,32.38
2017-09-20T01:25:50.751Z,32.17
2017-09-20T01:28:18.546Z,31.83
2017-09-20T01:30:46.351Z,33.28
2017-09-20T01:33:14.863Z,31.45
2017-09-20T01:35:42.650Z,31.77
2017-09-20T01:38:10.396Z,30.90
2017-09-20T01:40:38.292Z,29.67
2017-09-20T01:43:06.159Z,31.45
2017-09-20T01:45:34.028Z,32.22
2017-09-20T01:48:01.894Z,31.67
2017-09-20T01:50:30.387Z,33.03
2017-09-20T01:52:58.112Z,32.30
2017-09-20T01:55:25.845Z,30.90
2017-09-20T01:57:54.489Z,27.13
2017-09-20T02:00:22.241Z,25.52
2017-09-20T02:02:49.989Z,25.48
2017-09-20T02:05:17.784Z,28.42
2017-09-20T02:07:45.652Z,28.00
2017-09-20T02:10:13.518Z,29.67
2017-09-20T02:12:41.386Z,30.60
2017-09-20T02:15:09.253Z,29.98
2017-09-20T02:17:36.978Z,31.67
2017-09-20T02:20:04.709Z,31.27
2017-09-20T02:22:32.450Z,33.10
2017-09-20T02:25:00.313Z,33.20
2017-09-20T02:27:28.187Z,32.17
2017-09-20T02:29:56.048Z,30.80
2017-09-20T02:32:23.774Z,31.12
2017-09-20T02:34:51.680Z,31.58
2017-09-20T02:37:19.547Z,27.50
2017-09-20T02:39:47.416Z,29.58
2017-09-20T02:42:15.282Z,28.70
2017-09-20T02:44:43.047Z,30.75
2017-09-20T02:47:10.804Z,27.98
2017-09-20T02:49:38.680Z,28.77
2017-09-20T02:52:06.548Z,30.25
2017-09-20T02:54:34.415Z,33.80
2017-09-20T02:57:02.281Z,32.63
2017-09-20T02:59:30.003Z,34.90
2017-09-20T03:01:57.914Z,25.42
2017-09-20T03:04:25.663Z,25.20
2017-09-20T03:06:53.545Z,21.25
2017-09-20T03:09:21.270Z,19.17
2017-09-20T03:11:49.023Z,18.20
2017-09-20T03:14:17.659Z,17.85
2017-09-20T03:16:45.526Z,15.07
2017-09-20T03:19:13.404Z,15.00
2017-09-20T03:21:41.130Z,12.63
2017-09-20T03:24:08.855Z,11.50
2017-09-20T03:26:37.345Z,10.93
2017-09-20T03:29:05.826Z,13.35
2017-09-20T03:31:34.323Z,12.45
2017-09-20T03:34:02.134Z,15.10
2017-09-20T03:36:30.001Z,18.23
2017-09-20T03:38:57.869Z,18.17
2017-09-20T03:41:25.736Z,14.50
2017-09-20T03:43:53.536Z,21.35
2017-09-20T03:46:22.032Z,24.70
2017-09-20T03:48:50.669Z,23.95
2017-09-20T03:51:18.536Z,24.60
2017-09-20T03:53:46.404Z,27.67
2017-09-20T03:56:14.128Z,28.42
2017-09-20T03:58:41.935Z,23.90
2017-09-20T04:01:09.801Z,21.35
2017-09-20T04:03:37.667Z,19.00
2017-09-20T04:06:05.536Z,21.27
2017-09-20T04:08:33.505Z,20.92
2017-09-20T04:11:01.216Z,20.30
2017-09-20T04:13:29.698Z,23.20
2017-09-20T04:15:58.207Z,21.77
2017-09-20T04:18:26.002Z,23.30
2017-09-20T04:20:53.740Z,25.30
2017-09-20T04:23:21.632Z,26.42
2017-09-20T04:25:49.524Z,27.35
2017-09-20T04:28:17.250Z,27.02
2017-09-20T04:30:45.136Z,24.95
2017-09-20T04:33:12.939Z,23.62
2017-09-20T04:35:40.760Z,26.58
2017-09-20T04:38:08.630Z,25.65
2017-09-20T04:40:36.498Z,25.17
2017-09-20T04:43:04.364Z,25.05
2017-09-20T04:45:32.088Z,22.00
2017-09-20T04:47:59.808Z,33.42
2017-09-20T04:50:27.526Z,33.40
2017-09-20T04:52:55.296Z,35.00
2017-09-20T04:55:23.023Z,33.47
2017-09-20T04:57:51.499Z,31.87
2017-09-20T05:00:19.995Z,33.55
2017-09-20T05:02:48.468Z,34.42
2017-09-20T05:05:16.942Z,33.28
2017-09-20T05:07:45.417Z,35.20
2017-09-20T05:10:13.142Z,33.50
2017-09-20T05:12:40.857Z,29.50
2017-09-20T05:15:09.358Z,28.58
2017-09-20T05:17:37.104Z,29.48
2017-09-20T05:20:05.616Z,31.52
2017-09-20T05:22:33.338Z,33.33
2017-09-20T05:25:01.070Z,32.30
2017-09-20T05:27:28.798Z,33.55
2017-09-20T05:29:56.582Z,29.80
2017-09-20T05:32:24.352Z,32.72
2017-09-20T05:34:52.101Z,30.55
2017-09-20T05:37:19.827Z,32.20
2017-09-20T05:39:47.598Z,26.48
2017-09-20T05:42:16.094Z,27.45
2017-09-20T05:44:44.592Z,25.73
2017-09-20T05:47:12.326Z,26.12
2017-09-20T05:49:40.824Z,26.95
2017-09-20T05:52:09.322Z,26.52
2017-09-20T05:54:37.050Z,26.00
2017-09-20T05:57:04.784Z,27.27
2017-09-20T05:59:32.549Z,29.05
2017-09-20T06:02:00.283Z,28.05
2017-09-20T06:04:28.013Z,28.52
2017-09-20T06:06:56.522Z,26.67
2017-09-20T06:09:24.263Z,27.92
2017-09-20T06:11:52.763Z,28.25
2017-09-20T06:14:20.486Z,26.87
2017-09-20T06:16:49.091Z,27.98
2017-09-20T06:19:17.589Z,28.17
2017-09-20T06:21:45.331Z,29.23
2017-09-20T06:24:13.050Z,29.63
2017-09-20T06:26:40.779Z,26.33
2017-09-20T06:29:09.276Z,26.67
2017-09-20T06:31:37.011Z,25.60
2017-09-20T06:34:05.506Z,25.30
2017-09-20T06:36:34.002Z,26.98
2017-09-20T06:39:01.738Z,27.95
2017-09-20T06:41:30.225Z,25.98
2017-09-20T06:43:58.727Z,26.95
2017-09-20T06:46:26.464Z,25.50
2017-09-20T06:51:28.175Z,30.55
2017-09-20T06:53:55.897Z,27.40
2017-09-20T06:56:23.628Z,29.15
2017-09-20T06:58:51.359Z,28.42
2017-09-20T07:01:19.091Z,27.62
2017-09-20T07:03:46.818Z,29.15
2017-09-20T07:06:14.534Z,28.23
2017-09-20T07:08:43.020Z,29.52
2017-09-20T07:11:10.746Z,30.67
2017-09-20T07:13:38.468Z,29.52
2017-09-20T07:16:06.203Z,29.70
2017-09-20T07:18:34.699Z,31.05
2017-09-20T07:21:02.420Z,29.67
2017-09-20T07:23:30.126Z,29.30
2017-09-20T07:25:58.617Z,29.85
2017-09-20T07:28:26.375Z,31.35
2017-09-20T07:30:54.091Z,29.00
2017-09-20T07:33:21.806Z,27.67
2017-09-20T07:35:49.519Z,30.25
2017-09-20T07:38:17.238Z,30.48
2017-09-20T07:40:44.951Z,31.55
2017-09-20T07:43:12.668Z,30.75
2017-09-20T07:45:40.407Z,28.38
2017-09-20T07:48:08.887Z,29.02
2017-09-20T07:50:37.372Z,28.90
2017-09-20T07:53:05.855Z,26.35
2017-09-20T07:55:34.339Z,24.75
2017-09-20T07:58:02.828Z,26.35
2017-09-20T08:00:31.309Z,25.75
2017-09-20T08:02:59.790Z,28.05
2017-09-20T08:05:27.501Z,26.10
2017-09-20T08:07:55.240Z,25.25
2017-09-20T08:10:22.954Z,23.23
2017-09-20T08:12:50.662Z,25.55
2017-09-20T08:15:18.383Z,23.58
2017-09-20T08:17:46.114Z,25.25
2017-09-20T08:20:13.835Z,23.25
2017-09-20T08:22:42.320Z,24.50
2017-09-20T08:25:10.810Z,26.60
2017-09-20T08:27:38.528Z,27.50
2017-09-20T08:30:06.255Z,25.48
2017-09-20T08:32:33.968Z,25.45
2017-09-20T08:35:01.692Z,23.33
2017-09-20T08:37:29.407Z,24.12
2017-09-20T08:39:57.922Z,27.87
2017-09-20T08:42:25.648Z,25.10
2017-09-20T08:44:54.132Z,24.85
2017-09-20T08:47:22.613Z,25.90
2017-09-20T08:49:51.164Z,26.37
2017-09-20T08:52:18.895Z,24.75
2017-09-20T08:54:46.619Z,27.42
2017-09-20T08:57:14.339Z,26.52
2017-09-20T08:59:42.051Z,26.83
2017-09-20T09:02:09.780Z,25.62
2017-09-20T09:04:38.263Z,26.37
2017-09-20T09:07:05.983Z,25.58
2017-09-20T09:09:33.695Z,26.90
2017-09-20T09:12:01.408Z,25.05
2017-09-20T09:14:29.895Z,25.77
2017-09-20T09:16:57.614Z,25.17
2017-09-20T09:19:25.335Z,25.60
2017-09-20T09:21:53.076Z,24.45
2017-09-20T09:24:21.557Z,23.40
2017-09-20T09:26:50.043Z,23.95
2017-09-20T09:29:17.757Z,23.75
2017-09-20T09:31:45.485Z,24.45
2017-09-20T09:34:13.202Z,24.20
2017-09-20T09:36:40.925Z,23.85
2017-09-20T09:39:08.646Z,22.80
2017-09-20T09:41:37.130Z,23.10
2017-09-20T09:44:05.655Z,22.02
2017-09-20T09:46:33.372Z,21.75
2017-09-20T09:49:01.850Z,22.65
2017-09-20T09:51:30.363Z,22.17
2017-09-20T09:53:58.093Z,22.35
2017-09-20T09:56:25.811Z,22.37
2017-09-20T09:58:53.524Z,20.85
2017-09-20T10:01:21.234Z,20.50
2017-09-20T10:03:48.947Z,19.23
2017-09-20T10:06:16.705Z,19.35
2017-09-20T10:08:44.417Z,20.48
2017-09-20T10:11:12.139Z,20.62
2017-09-20T10:13:39.851Z,21.40
2017-09-20T10:16:07.562Z,20.05
2017-09-20T10:18:35.290Z,18.83
2017-09-20T10:21:03.018Z,20.33
2017-09-20T10:23:31.503Z,20.75
2017-09-20T10:25:59.986Z,19.75
2017-09-20T10:28:27.715Z,20.83
2017-09-20T10:30:55.439Z,20.12
2017-09-20T10:33:23.158Z,18.23
2017-09-20T10:35:50.883Z,16.95
2017-09-20T10:38:18.602Z,18.23
2017-09-20T10:40:47.078Z,17.23
2017-09-20T10:43:15.566Z,19.67
2017-09-20T10:45:44.047Z,17.48
2017-09-20T10:48:12.526Z,18.30
2017-09-20T10:50:41.050Z,18.40
2017-09-20T10:53:08.767Z,17.90
2017-09-20T10:55:37.251Z,17.70
2017-09-20T10:58:05.734Z,18.75
2017-09-20T11:00:34.220Z,19.08
2017-09-20T11:03:02.703Z,19.10
2017-09-20T11:05:31.182Z,17.73
2017-09-20T11:07:59.658Z,19.87
2017-09-20T11:10:28.152Z,19.52
2017-09-20T11:12:55.886Z,20.95
2017-09-20T11:15:23.623Z,18.70
2017-09-20T11:17:51.363Z,20.35
2017-09-20T11:20:19.090Z,19.48
2017-09-20T11:22:47.583Z,18.98
2017-09-20T11:25:16.087Z,20.42
2017-09-20T11:27:43.850Z,20.40
2017-09-20T11:30:11.574Z,20.45
2017-09-20T11:32:39.303Z,19.87
2017-09-20T11:35:07.036Z,20.98
2017-09-20T11:37:34.757Z,17.35
2017-09-20T11:40:02.483Z,18.55
2017-09-20T11:42:30.206Z,18.73
2017-09-20T11:44:58.696Z,18.15
2017-09-20T11:47:27.198Z,18.80
2017-09-20T11:49:54.926Z,17.90
2017-09-20T11:52:22.662Z,18.40
2017-09-20T11:54:50.387Z,16.98
2017-09-20T11:57:18.120Z,17.55
2017-09-20T11:59:46.622Z,16.60
2017-09-20T12:02:14.359Z,16.73
2017-09-20T12:04:42.102Z,16.37
2017-09-20T12:07:09.823Z,15.35
2017-09-20T12:09:37.539Z,15.55
2017-09-20T12:12:05.256Z,15.27
2017-09-20T12:14:32.996Z,17.65
2017-09-20T12:17:01.489Z,15.20
2017-09-20T12:19:29.223Z,14.48
2017-09-20T12:21:56.944Z,14.63
2017-09-20T12:24:24.669Z,13.60
2017-09-20T12:26:53.159Z,15.23
2017-09-20T12:29:21.639Z,17.02
2017-09-20T12:31:50.122Z,15.65
2017-09-20T12:34:17.852Z,16.48
2017-09-20T12:36:45.571Z,17.37
2017-09-20T12:39:13.297Z,15.85
2017-09-20T12:41:41.010Z,16.65
2017-09-20T12:44:08.722Z,16.87
2017-09-20T12:46:36.448Z,16.10
2017-09-20T12:49:04.158Z,16.70
2017-09-20T12:51:32.643Z,16.92
2017-09-20T12:54:01.123Z,15.35
2017-09-20T12:56:29.606Z,15.13
2017-09-20T12:58:58.085Z,14.85
2017-09-20T13:01:26.611Z,15.63
2017-09-20T13:03:54.328Z,14.82
2017-09-20T13:06:22.883Z,14.30
2017-09-20T13:08:50.608Z,13.80
2017-09-20T13:11:18.331Z,10.90
2017-09-20T13:13:46.042Z,11.77
2017-09-20T13:16:13.763Z,6.60
2017-09-20T13:18:41.479Z,6.00
2017-09-20T13:21:09.204Z,6.05
2017-09-20T13:23:37.684Z,4.90
2017-09-20T13:26:06.166Z,4.75
2017-09-20T13:28:34.643Z,4.60
2017-09-20T13:31:03.126Z,4.85
2017-09-20T13:33:31.653Z,3.65
2017-09-20T13:35:59.366Z,3.20
2017-09-20T13:38:27.089Z,4.07
2017-09-20T13:40:54.812Z,5.05
2017-09-20T13:43:23.292Z,5.53
2017-09-20T13:45:51.767Z,5.35
2017-09-20T13:48:20.246Z,5.93
2017-09-20T13:50:48.726Z,5.75
2017-09-20T13:53:16.457Z,4.40
2017-09-20T13:55:44.178Z,3.80
2017-09-20T13:58:11.899Z,4.75
2017-09-20T14:00:39.653Z,4.60
2017-09-20T14:03:07.371Z,6.72
2017-09-20T14:05:35.076Z,6.62
2017-09-20T14:08:02.787Z,6.00
2017-09-20T14:10:31.263Z,6.30
2017-09-20T14:12:59.730Z,6.60
2017-09-20T14:15:27.443Z,6.97
2017-09-20T14:17:55.157Z,6.80
2017-09-20T14:20:22.880Z,6.47
2017-09-20T14:22:50.593Z,6.95
2017-09-20T14:25:19.071Z,6.87
2017-09-20T14:27:47.570Z,6.22
2017-09-20T14:30:16.042Z,6.28
2017-09-20T14:32:44.515Z,7.22
2017-09-20T14:35:12.227Z,6.80
2017-09-20T14:37:39.934Z,5.95
2017-09-20T14:40:07.639Z,6.50
2017-09-20T14:42:35.347Z,7.40
2017-09-20T14:45:03.062Z,6.32
2017-09-20T14:47:30.780Z,5.25
2017-09-20T14:49:58.499Z,4.93
2017-09-20T14:52:26.251Z,4.80
2017-09-20T14:54:53.963Z,4.97
2017-09-20T14:57:21.674Z,5.80
2017-09-20T14:59:49.386Z,7.28
2017-09-20T15:02:17.121Z,6.00
2017-09-20T15:04:44.831Z,5.10
2017-09-20T15:07:12.538Z,5.65
2017-09-20T15:09:40.285Z,5.95
2017-09-20T15:12:08.770Z,7.05
2017-09-20T15:14:37.287Z,8.60
2017-09-20T15:17:05.004Z,7.93
2017-09-20T15:19:33.490Z,8.77
2017-09-20T15:22:01.958Z,8.98
2017-09-20T15:24:29.688Z,10.00
2017-09-20T15:26:57.419Z,10.88
2017-09-20T15:29:25.144Z,11.80
2017-09-20T15:31:52.927Z,13.52
2017-09-20T15:34:22.174Z,12.65
2017-09-20T15:36:49.899Z,11.75
2017-09-20T15:39:18.477Z,11.70
2017-09-20T15:41:47.125Z,12.65
2017-09-20T15:44:14.990Z,12.20
2017-09-20T15:46:42.858Z,13.18
2017-09-20T15:49:10.725Z,10.95
2017-09-20T15:51:38.593Z,12.20
2017-09-20T15:54:06.460Z,11.25
2017-09-20T15:56:34.328Z,11.18
2017-09-20T15:59:02.194Z,12.37
2017-09-20T16:01:30.062Z,12.55
2017-09-20T16:03:57.929Z,12.68
2017-09-20T16:06:25.796Z,12.50
2017-09-20T16:08:56.101Z,13.77
2017-09-20T16:11:26.337Z,15.38
2017-09-20T16:13:56.436Z,14.05
2017-09-20T16:16:24.251Z,16.58
2017-09-20T16:18:53.988Z,15.48
2017-09-20T16:21:24.883Z,17.45
2017-09-20T16:23:52.850Z,17.95
2017-09-20T16:26:20.716Z,17.12
2017-09-20T16:28:49.505Z,17.27
2017-09-20T16:31:17.398Z,15.98
2017-09-20T16:33:45.239Z,19.20
2017-09-20T16:36:13.107Z,19.30
2017-09-20T16:38:40.974Z,19.37
2017-09-20T16:41:08.841Z,19.33
2017-09-20T16:43:36.708Z,17.98
2017-09-20T16:46:04.576Z,18.52
2017-09-20T16:48:32.448Z,19.67
2017-09-20T16:51:00.313Z,20.90
2017-09-20T16:53:28.180Z,20.60
2017-09-20T16:55:56.050Z,21.27
2017-09-20T16:58:23.919Z,22.35
2017-09-20T17:00:51.785Z,21.15
2017-09-20T17:03:19.754Z,21.10
2017-09-20T17:05:47.720Z,20.70
2017-09-20T17:08:15.587Z,21.42
2017-09-20T17:10:43.454Z,20.35
2017-09-20T17:13:11.321Z,22.62
2017-09-20T17:15:39.188Z,22.20
2017-09-20T17:18:07.057Z,22.20
2017-09-20T17:20:34.923Z,22.10
2017-09-20T17:23:02.794Z,23.35
2017-09-20T17:25:30.661Z,21.45
2017-09-20T17:27:58.538Z,20.25
2017-09-20T17:30:26.395Z,20.48
2017-09-20T17:32:54.260Z,20.85
2017-09-20T17:35:22.128Z,21.20
2017-09-20T17:37:49.995Z,20.50
2017-09-20T17:40:17.861Z,21.30
2017-09-20T17:42:45.729Z,22.50
2017-09-20T17:45:13.597Z,20.80
2017-09-20T17:47:41.463Z,21.08
2017-09-20T17:50:09.331Z,19.95
2017-09-20T17:52:37.198Z,20.12
2017-09-20T17:55:05.066Z,20.60
2017-09-20T17:57:32.933Z,21.23
2017-09-20T18:00:00.801Z,20.20
2017-09-20T18:02:28.667Z,18.58
2017-09-20T18:04:56.535Z,19.33
2017-09-20T18:07:24.402Z,19.20
2017-09-20T18:09:52.269Z,20.92
2017-09-20T18:12:20.136Z,19.25
2017-09-20T18:14:48.004Z,19.67
2017-09-20T18:17:15.870Z,20.25
2017-09-20T18:19:43.738Z,19.25
2017-09-20T18:22:11.606Z,20.48
2017-09-20T18:24:39.473Z,19.70
2017-09-20T18:27:07.647Z,18.62
2017-09-20T18:29:35.515Z,20.55
2017-09-20T18:32:03.385Z,20.37
2017-09-20T18:34:31.249Z,20.58
2017-09-20T18:36:59.046Z,20.90
2017-09-20T18:39:26.881Z,20.37
2017-09-20T18:41:54.749Z,20.35
2017-09-20T18:44:22.617Z,21.50
2017-09-20T18:46:50.484Z,19.37
2017-09-20T18:49:18.352Z,19.42
2017-09-20T18:51:46.682Z,19.83
2017-09-20T18:54:14.496Z,19.98
2017-09-20T18:56:42.362Z,19.60
2017-09-20T18:59:10.231Z,20.25
2017-09-20T19:01:38.097Z,20.37
2017-09-20T19:04:05.966Z,19.60
2017-09-20T19:06:33.832Z,21.50
2017-09-20T19:09:01.700Z,19.67
2017-09-20T19:11:29.419Z,18.83
2017-09-20T19:13:57.199Z,20.35
2017-09-20T19:16:24.994Z,22.17
2017-09-20T19:18:52.839Z,21.27
2017-09-20T19:21:20.563Z,19.45
2017-09-20T19:23:49.043Z,20.88
2017-09-20T19:26:17.693Z,19.45
2017-09-20T19:28:45.559Z,19.50
2017-09-20T19:31:13.427Z,19.50
2017-09-20T19:33:41.294Z,21.35
2017-09-20T19:36:09.162Z,20.50
2017-09-20T19:38:37.029Z,18.70
2017-09-20T19:41:04.998Z,18.52
2017-09-20T19:43:32.866Z,21.87
2017-09-20T19:46:00.734Z,20.60
2017-09-20T19:48:28.601Z,21.52
2017-09-20T19:50:56.426Z,22.70
2017-09-20T19:53:24.335Z,21.37
2017-09-20T19:55:52.206Z,19.90
2017-09-20T19:58:20.070Z,21.58
2017-09-20T20:00:47.937Z,21.23
2017-09-20T20:03:15.809Z,19.83
2017-09-20T20:05:44.848Z,21.08
2017-09-20T20:08:13.486Z,22.52
2017-09-20T20:10:41.479Z,23.52
2017-09-20T20:13:09.328Z,21.02
2017-09-20T20:15:37.193Z,19.55
2017-09-20T20:18:05.247Z,20.95
2017-09-20T20:20:33.233Z,21.42
2017-09-20T20:23:01.099Z,20.67
2017-09-20T20:25:28.965Z,20.77
2017-09-20T20:27:56.835Z,19.27
2017-09-20T20:30:24.700Z,22.13
2017-09-20T20:32:52.567Z,20.40
2017-09-20T20:35:20.440Z,19.02
2017-09-20T20:37:48.302Z,20.08
2017-09-20T20:40:16.169Z,21.33
2017-09-20T20:42:44.060Z,19.27
2017-09-20T20:45:11.903Z,19.15
2017-09-20T20:47:39.771Z,19.55
2017-09-20T20:50:07.638Z,14.70
2017-09-20T20:52:35.505Z,12.85
2017-09-20T20:55:03.382Z,14.35
2017-09-20T20:57:31.239Z,13.43
2017-09-20T20:59:59.108Z,14.98
2017-09-20T21:02:26.974Z,15.35
2017-09-20T21:04:54.849Z,17.10
2017-09-20T21:07:22.709Z,16.00
2017-09-20T21:09:50.576Z,15.60
2017-09-20T21:12:18.290Z,13.95
2017-09-20T21:14:46.810Z,14.15
2017-09-20T21:17:14.691Z,14.73
2017-09-20T21:19:42.558Z,15.57
2017-09-20T21:22:10.437Z,16.48
2017-09-20T21:24:38.292Z,17.27
2017-09-20T21:27:06.160Z,19.33
2017-09-20T21:29:34.027Z,23.30
2017-09-20T21:32:01.894Z,26.40
2017-09-20T21:34:29.761Z,25.27
2017-09-20T21:36:57.632Z,26.92
2017-09-20T21:39:25.495Z,26.50
2017-09-20T21:41:53.876Z,25.73
2017-09-20T21:44:21.933Z,26.92
2017-09-20T21:46:50.634Z,24.67
2017-09-20T21:49:18.501Z,25.05
2017-09-20T21:51:46.369Z,25.52
2017-09-20T21:54:14.237Z,24.58
2017-09-20T21:56:42.109Z,24.45
2017-09-20T21:59:09.971Z,23.40
2017-09-20T22:01:37.838Z,23.58
2017-09-20T22:04:05.706Z,21.92
2017-09-20T22:06:33.573Z,23.42
2017-09-20T22:09:01.441Z,23.70
2017-09-20T22:11:29.307Z,23.38
2017-09-20T22:13:57.175Z,22.67
2017-09-20T22:16:37.027Z,21.85
2017-09-20T22:19:16.666Z,21.15
2017-09-20T22:21:56.310Z,21.85
2017-09-20T22:24:36.055Z,22.60
2017-09-20T22:27:03.941Z,21.48
2017-09-20T22:29:31.892Z,19.50
2017-09-20T22:31:59.759Z,20.30
2017-09-20T22:34:27.630Z,20.05
2017-09-20T22:36:55.530Z,19.37
2017-09-20T22:39:24.180Z,21.15
2017-09-20T22:41:52.048Z,25.60
2017-09-20T22:44:19.915Z,22.70
2017-09-20T22:46:47.783Z,23.30
2017-09-20T22:49:15.656Z,22.20
2017-09-20T22:51:43.517Z,23.30
2017-09-20T22:54:11.384Z,24.55
2017-09-20T22:56:39.252Z,23.50
2017-09-20T22:59:07.119Z,25.12
2017-09-20T23:01:34.999Z,23.35
2017-09-20T23:04:02.853Z,22.95
2017-09-20T23:06:30.721Z,23.20
2017-09-20T23:08:58.588Z,24.83
2017-09-20T23:11:26.456Z,25.67
2017-09-20T23:13:54.326Z,24.95
2017-09-20T23:16:22.192Z,27.23
2017-09-20T23:18:50.058Z,25.00
2017-09-20T23:21:17.929Z,26.73
2017-09-20T23:23:45.796Z,25.20
2017-09-20T23:26:13.663Z,24.12
2017-09-20T23:28:41.529Z,24.85
2017-09-20T23:31:09.395Z,24.00
2017-09-20T23:33:37.262Z,24.63
2017-09-20T23:36:05.128Z,23.83
2017-09-20T23:38:33.200Z,22.87
2017-09-20T23:41:01.068Z,22.10
2017-09-20T23:43:28.934Z,23.15
2017-09-20T23:45:56.802Z,21.80
2017-09-20T23:48:24.670Z,19.58
2017-09-20T23:50:52.543Z,20.70
2017-09-20T23:53:20.405Z,20.20
2017-09-20T23:55:48.272Z,22.45
2017-09-20T23:58:16.139Z,18.30
